sensor_id;sensor_type;location;lat;lon;timestamp;P1;durP1;ratioP1;P2;durP2;ratioP2
47762;SDS011;33526;42.690;23.322;2023-08-01T00:00:29;2.55;;;2.10;;
47762;SDS011;33526;42.690;23.322;2023-08-01T00:02:54;2.80;;;1.80;;
47762;SDS011;33526;42.690;23.322;2023-08-01T00:05:20;3.13;;;2.28;;
47762;SDS011;33526;42.690;23.322;2023-08-01T00:07:45;2.95;;;1.98;;
47762;SDS011;33526;42.690;23.322;2023-08-01T00:10:11;5.07;;;2.00;;
47762;SDS011;33526;42.690;23.322;2023-08-01T00:12:36;1.92;;;1.75;;
47762;SDS011;33526;42.690;23.322;2023-08-01T00:15:02;5.38;;;1.85;;
47762;SDS011;33526;42.690;23.322;2023-08-01T00:17:28;2.80;;;2.00;;
47762;SDS011;33526;42.690;23.322;2023-08-01T00:19:54;2.33;;;2.00;;
47762;SDS011;33526;42.690;23.322;2023-08-01T00:22:20;4.00;;;2.10;;
47762;SDS011;33526;42.690;23.322;2023-08-01T00:24:45;4.07;;;2.10;;
47762;SDS011;33526;42.690;23.322;2023-08-01T00:27:12;7.15;;;1.98;;
47762;SDS011;33526;42.690;23.322;2023-08-01T00:29:38;3.08;;;2.13;;
47762;SDS011;33526;42.690;23.322;2023-08-01T00:32:04;3.33;;;2.03;;
47762;SDS011;33526;42.690;23.322;2023-08-01T00:34:29;2.47;;;2.22;;
47762;SDS011;33526;42.690;23.322;2023-08-01T00:36:55;2.38;;;2.00;;
47762;SDS011;33526;42.690;23.322;2023-08-01T00:39:20;2.78;;;2.10;;
47762;SDS011;33526;42.690;23.322;2023-08-01T00:41:46;2.85;;;1.90;;
47762;SDS011;33526;42.690;23.322;2023-08-01T00:44:11;3.72;;;2.10;;
47762;SDS011;33526;42.690;23.322;2023-08-01T00:46:36;2.88;;;2.17;;
47762;SDS011;33526;42.690;23.322;2023-08-01T00:49:02;5.80;;;2.45;;
47762;SDS011;33526;42.690;23.322;2023-08-01T00:51:28;2.25;;;1.98;;
47762;SDS011;33526;42.690;23.322;2023-08-01T00:53:55;4.47;;;2.10;;
47762;SDS011;33526;42.690;23.322;2023-08-01T00:56:20;2.80;;;2.22;;
47762;SDS011;33526;42.690;23.322;2023-08-01T00:58:46;3.13;;;2.22;;
47762;SDS011;33526;42.690;23.322;2023-08-01T01:01:11;3.25;;;2.03;;
47762;SDS011;33526;42.690;23.322;2023-08-01T01:03:36;4.72;;;1.85;;
47762;SDS011;33526;42.690;23.322;2023-08-01T01:06:23;4.22;;;2.15;;
47762;SDS011;33526;42.690;23.322;2023-08-01T01:08:53;4.50;;;1.85;;
47762;SDS011;33526;42.690;23.322;2023-08-01T01:11:20;2.22;;;1.80;;
47762;SDS011;33526;42.690;23.322;2023-08-01T01:13:46;5.80;;;1.70;;
47762;SDS011;33526;42.690;23.322;2023-08-01T01:16:11;3.00;;;1.92;;
47762;SDS011;33526;42.690;23.322;2023-08-01T01:18:37;3.50;;;1.88;;
47762;SDS011;33526;42.690;23.322;2023-08-01T01:21:02;4.30;;;1.90;;
47762;SDS011;33526;42.690;23.322;2023-08-01T01:23:27;2.75;;;1.80;;
47762;SDS011;33526;42.690;23.322;2023-08-01T01:25:54;2.38;;;1.67;;
47762;SDS011;33526;42.690;23.322;2023-08-01T01:28:22;5.47;;;2.90;;
47762;SDS011;33526;42.690;23.322;2023-08-01T01:30:48;3.60;;;1.98;;
47762;SDS011;33526;42.690;23.322;2023-08-01T01:33:14;7.35;;;2.00;;
47762;SDS011;33526;42.690;23.322;2023-08-01T01:35:41;3.67;;;2.50;;
47762;SDS011;33526;42.690;23.322;2023-08-01T01:38:06;2.63;;;1.92;;
47762;SDS011;33526;42.690;23.322;2023-08-01T01:40:32;2.85;;;1.70;;
47762;SDS011;33526;42.690;23.322;2023-08-01T01:42:58;2.58;;;1.85;;
47762;SDS011;33526;42.690;23.322;2023-08-01T01:45:25;2.35;;;2.03;;
47762;SDS011;33526;42.690;23.322;2023-08-01T01:47:50;4.22;;;2.22;;
47762;SDS011;33526;42.690;23.322;2023-08-01T01:50:16;3.13;;;2.10;;
47762;SDS011;33526;42.690;23.322;2023-08-01T01:52:42;5.22;;;1.85;;
47762;SDS011;33526;42.690;23.322;2023-08-01T01:55:08;4.30;;;2.33;;
47762;SDS011;33526;42.690;23.322;2023-08-01T01:57:34;3.08;;;2.10;;
47762;SDS011;33526;42.690;23.322;2023-08-01T02:00:01;3.45;;;2.38;;
47762;SDS011;33526;42.690;23.322;2023-08-01T02:02:27;2.07;;;1.70;;
47762;SDS011;33526;42.690;23.322;2023-08-01T02:04:52;4.60;;;1.90;;
47762;SDS011;33526;42.690;23.322;2023-08-01T02:07:18;5.60;;;2.60;;
47762;SDS011;33526;42.690;23.322;2023-08-01T02:09:43;3.67;;;1.83;;
47762;SDS011;33526;42.690;23.322;2023-08-01T02:12:09;4.93;;;2.10;;
47762;SDS011;33526;42.690;23.322;2023-08-01T02:14:35;4.97;;;1.90;;
47762;SDS011;33526;42.690;23.322;2023-08-01T02:17:01;3.92;;;2.20;;
47762;SDS011;33526;42.690;23.322;2023-08-01T02:19:26;2.60;;;2.00;;
47762;SDS011;33526;42.690;23.322;2023-08-01T02:21:53;4.63;;;1.92;;
47762;SDS011;33526;42.690;23.322;2023-08-01T02:24:18;3.38;;;2.05;;
47762;SDS011;33526;42.690;23.322;2023-08-01T02:26:44;3.47;;;2.33;;
47762;SDS011;33526;42.690;23.322;2023-08-01T02:29:09;4.53;;;2.05;;
47762;SDS011;33526;42.690;23.322;2023-08-01T02:31:35;2.83;;;1.90;;
47762;SDS011;33526;42.690;23.322;2023-08-01T02:34:00;5.28;;;2.28;;
47762;SDS011;33526;42.690;23.322;2023-08-01T02:36:26;3.38;;;2.25;;
47762;SDS011;33526;42.690;23.322;2023-08-01T02:38:51;3.03;;;2.17;;
47762;SDS011;33526;42.690;23.322;2023-08-01T02:41:17;2.50;;;2.00;;
47762;SDS011;33526;42.690;23.322;2023-08-01T02:43:42;4.32;;;2.22;;
47762;SDS011;33526;42.690;23.322;2023-08-01T02:46:07;4.05;;;2.00;;
47762;SDS011;33526;42.690;23.322;2023-08-01T02:48:33;3.50;;;2.10;;
47762;SDS011;33526;42.690;23.322;2023-08-01T02:53:25;5.15;;;2.30;;
47762;SDS011;33526;42.690;23.322;2023-08-01T02:55:51;4.35;;;2.30;;
47762;SDS011;33526;42.690;23.322;2023-08-01T02:58:16;4.40;;;2.10;;
47762;SDS011;33526;42.690;23.322;2023-08-01T03:00:41;5.78;;;2.70;;
47762;SDS011;33526;42.690;23.322;2023-08-01T03:03:07;9.00;;;2.25;;
47762;SDS011;33526;42.690;23.322;2023-08-01T03:05:35;3.22;;;2.20;;
47762;SDS011;33526;42.690;23.322;2023-08-01T03:08:00;2.85;;;2.08;;
47762;SDS011;33526;42.690;23.322;2023-08-01T03:10:26;3.30;;;2.22;;
47762;SDS011;33526;42.690;23.322;2023-08-01T03:12:51;3.40;;;2.00;;
47762;SDS011;33526;42.690;23.322;2023-08-01T03:15:17;6.05;;;2.33;;
47762;SDS011;33526;42.690;23.322;2023-08-01T03:17:42;5.68;;;2.33;;
47762;SDS011;33526;42.690;23.322;2023-08-01T03:20:08;5.88;;;2.20;;
47762;SDS011;33526;42.690;23.322;2023-08-01T03:22:37;5.38;;;2.38;;
47762;SDS011;33526;42.690;23.322;2023-08-01T03:25:04;4.57;;;2.28;;
47762;SDS011;33526;42.690;23.322;2023-08-01T03:27:32;3.08;;;2.33;;
47762;SDS011;33526;42.690;23.322;2023-08-01T03:29:58;3.10;;;2.60;;
47762;SDS011;33526;42.690;23.322;2023-08-01T03:32:24;7.57;;;2.10;;
47762;SDS011;33526;42.690;23.322;2023-08-01T03:34:49;3.80;;;2.40;;
47762;SDS011;33526;42.690;23.322;2023-08-01T03:37:15;6.18;;;3.60;;
47762;SDS011;33526;42.690;23.322;2023-08-01T03:39:41;7.85;;;5.43;;
47762;SDS011;33526;42.690;23.322;2023-08-01T03:42:06;8.55;;;5.10;;
47762;SDS011;33526;42.690;23.322;2023-08-01T03:44:33;6.28;;;4.30;;
47762;SDS011;33526;42.690;23.322;2023-08-01T03:46:58;9.38;;;5.15;;
47762;SDS011;33526;42.690;23.322;2023-08-01T03:49:24;10.60;;;4.47;;
47762;SDS011;33526;42.690;23.322;2023-08-01T03:51:49;6.43;;;3.63;;
47762;SDS011;33526;42.690;23.322;2023-08-01T03:54:15;4.47;;;3.70;;
47762;SDS011;33526;42.690;23.322;2023-08-01T03:56:40;8.45;;;3.97;;
47762;SDS011;33526;42.690;23.322;2023-08-01T03:59:08;6.97;;;3.53;;
47762;SDS011;33526;42.690;23.322;2023-08-01T04:01:35;5.13;;;3.35;;
47762;SDS011;33526;42.690;23.322;2023-08-01T04:04:00;6.72;;;4.90;;
47762;SDS011;33526;42.690;23.322;2023-08-01T04:06:25;6.75;;;3.78;;
47762;SDS011;33526;42.690;23.322;2023-08-01T04:08:51;5.95;;;4.03;;
47762;SDS011;33526;42.690;23.322;2023-08-01T04:11:17;11.55;;;3.55;;
47762;SDS011;33526;42.690;23.322;2023-08-01T04:13:42;6.00;;;3.90;;
47762;SDS011;33526;42.690;23.322;2023-08-01T04:16:08;4.57;;;3.60;;
47762;SDS011;33526;42.690;23.322;2023-08-01T04:18:33;7.70;;;3.50;;
47762;SDS011;33526;42.690;23.322;2023-08-01T04:20:59;5.35;;;3.85;;
47762;SDS011;33526;42.690;23.322;2023-08-01T04:23:24;5.82;;;2.92;;
47762;SDS011;33526;42.690;23.322;2023-08-01T04:25:49;6.80;;;3.40;;
47762;SDS011;33526;42.690;23.322;2023-08-01T04:28:15;4.22;;;3.03;;
47762;SDS011;33526;42.690;23.322;2023-08-01T04:30:40;5.07;;;3.05;;
47762;SDS011;33526;42.690;23.322;2023-08-01T04:33:06;3.60;;;2.70;;
47762;SDS011;33526;42.690;23.322;2023-08-01T04:35:31;5.18;;;2.92;;
47762;SDS011;33526;42.690;23.322;2023-08-01T04:37:56;4.35;;;2.80;;
47762;SDS011;33526;42.690;23.322;2023-08-01T04:40:22;5.82;;;2.67;;
47762;SDS011;33526;42.690;23.322;2023-08-01T04:42:47;7.20;;;3.13;;
47762;SDS011;33526;42.690;23.322;2023-08-01T04:45:13;6.95;;;3.30;;
47762;SDS011;33526;42.690;23.322;2023-08-01T04:47:39;5.90;;;3.38;;
47762;SDS011;33526;42.690;23.322;2023-08-01T04:50:04;6.22;;;3.55;;
47762;SDS011;33526;42.690;23.322;2023-08-01T04:52:30;6.13;;;3.30;;
47762;SDS011;33526;42.690;23.322;2023-08-01T04:54:56;5.65;;;3.38;;
47762;SDS011;33526;42.690;23.322;2023-08-01T04:57:21;5.47;;;3.50;;
47762;SDS011;33526;42.690;23.322;2023-08-01T04:59:47;5.22;;;3.67;;
47762;SDS011;33526;42.690;23.322;2023-08-01T05:02:13;9.48;;;3.90;;
47762;SDS011;33526;42.690;23.322;2023-08-01T05:04:39;9.75;;;6.28;;
47762;SDS011;33526;42.690;23.322;2023-08-01T05:07:04;5.20;;;3.47;;
47762;SDS011;33526;42.690;23.322;2023-08-01T05:09:31;13.18;;;8.73;;
47762;SDS011;33526;42.690;23.322;2023-08-01T05:11:57;7.47;;;3.97;;
47762;SDS011;33526;42.690;23.322;2023-08-01T05:14:23;10.75;;;4.00;;
47762;SDS011;33526;42.690;23.322;2023-08-01T05:16:48;4.68;;;3.97;;
47762;SDS011;33526;42.690;23.322;2023-08-01T05:19:13;5.10;;;3.50;;
47762;SDS011;33526;42.690;23.322;2023-08-01T05:21:39;6.45;;;3.50;;
47762;SDS011;33526;42.690;23.322;2023-08-01T05:24:04;3.50;;;3.20;;
47762;SDS011;33526;42.690;23.322;2023-08-01T05:26:30;6.95;;;3.25;;
47762;SDS011;33526;42.690;23.322;2023-08-01T05:28:56;5.32;;;3.25;;
47762;SDS011;33526;42.690;23.322;2023-08-01T05:31:21;6.95;;;3.40;;
47762;SDS011;33526;42.690;23.322;2023-08-01T05:33:47;13.25;;;3.85;;
47762;SDS011;33526;42.690;23.322;2023-08-01T05:36:12;4.65;;;2.20;;
47762;SDS011;33526;42.690;23.322;2023-08-01T05:38:40;5.93;;;2.67;;
47762;SDS011;33526;42.690;23.322;2023-08-01T05:41:18;6.57;;;2.80;;
47762;SDS011;33526;42.690;23.322;2023-08-01T05:43:46;5.00;;;3.08;;
47762;SDS011;33526;42.690;23.322;2023-08-01T05:46:13;8.23;;;3.03;;
47762;SDS011;33526;42.690;23.322;2023-08-01T05:48:40;7.28;;;2.97;;
47762;SDS011;33526;42.690;23.322;2023-08-01T05:51:05;6.75;;;2.80;;
47762;SDS011;33526;42.690;23.322;2023-08-01T05:53:31;8.27;;;3.45;;
47762;SDS011;33526;42.690;23.322;2023-08-01T05:55:56;7.95;;;3.40;;
47762;SDS011;33526;42.690;23.322;2023-08-01T05:58:23;6.25;;;3.22;;
47762;SDS011;33526;42.690;23.322;2023-08-01T06:00:48;6.38;;;2.90;;
47762;SDS011;33526;42.690;23.322;2023-08-01T06:03:14;4.70;;;2.43;;
47762;SDS011;33526;42.690;23.322;2023-08-01T06:05:41;8.07;;;2.70;;
47762;SDS011;33526;42.690;23.322;2023-08-01T06:08:07;6.60;;;2.95;;
47762;SDS011;33526;42.690;23.322;2023-08-01T06:10:33;15.10;;;3.27;;
47762;SDS011;33526;42.690;23.322;2023-08-01T06:13:00;6.60;;;4.20;;
47762;SDS011;33526;42.690;23.322;2023-08-01T06:15:25;5.32;;;3.15;;
47762;SDS011;33526;42.690;23.322;2023-08-01T06:17:51;5.82;;;3.28;;
47762;SDS011;33526;42.690;23.322;2023-08-01T06:20:16;9.10;;;2.50;;
47762;SDS011;33526;42.690;23.322;2023-08-01T06:22:42;8.32;;;2.45;;
47762;SDS011;33526;42.690;23.322;2023-08-01T06:25:10;12.38;;;3.47;;
47762;SDS011;33526;42.690;23.322;2023-08-01T06:27:36;6.28;;;3.08;;
47762;SDS011;33526;42.690;23.322;2023-08-01T06:30:03;7.55;;;3.20;;
47762;SDS011;33526;42.690;23.322;2023-08-01T06:32:29;4.50;;;3.05;;
47762;SDS011;33526;42.690;23.322;2023-08-01T06:34:55;8.05;;;3.00;;
47762;SDS011;33526;42.690;23.322;2023-08-01T06:37:22;12.15;;;5.00;;
47762;SDS011;33526;42.690;23.322;2023-08-01T06:39:48;16.92;;;6.05;;
47762;SDS011;33526;42.690;23.322;2023-08-01T06:44:41;8.52;;;4.10;;
47762;SDS011;33526;42.690;23.322;2023-08-01T06:47:06;8.82;;;4.22;;
47762;SDS011;33526;42.690;23.322;2023-08-01T06:49:34;9.95;;;3.60;;
47762;SDS011;33526;42.690;23.322;2023-08-01T06:52:01;10.05;;;4.93;;
47762;SDS011;33526;42.690;23.322;2023-08-01T06:54:29;7.60;;;3.30;;
47762;SDS011;33526;42.690;23.322;2023-08-01T06:56:55;7.05;;;3.13;;
47762;SDS011;33526;42.690;23.322;2023-08-01T06:59:23;7.03;;;4.10;;
47762;SDS011;33526;42.690;23.322;2023-08-01T07:01:49;15.13;;;4.88;;
47762;SDS011;33526;42.690;23.322;2023-08-01T07:04:14;20.05;;;5.07;;
47762;SDS011;33526;42.690;23.322;2023-08-01T07:06:40;7.05;;;3.42;;
47762;SDS011;33526;42.690;23.322;2023-08-01T07:09:06;6.28;;;3.65;;
47762;SDS011;33526;42.690;23.322;2023-08-01T07:11:31;6.65;;;3.80;;
47762;SDS011;33526;42.690;23.322;2023-08-01T07:13:57;9.82;;;4.10;;
47762;SDS011;33526;42.690;23.322;2023-08-01T07:16:23;7.05;;;3.22;;
47762;SDS011;33526;42.690;23.322;2023-08-01T07:18:49;8.75;;;3.30;;
47762;SDS011;33526;42.690;23.322;2023-08-01T07:21:15;9.65;;;3.13;;
47762;SDS011;33526;42.690;23.322;2023-08-01T07:23:41;7.70;;;4.03;;
47762;SDS011;33526;42.690;23.322;2023-08-01T07:26:07;7.57;;;3.55;;
47762;SDS011;33526;42.690;23.322;2023-08-01T07:28:33;15.20;;;4.90;;
47762;SDS011;33526;42.690;23.322;2023-08-01T07:33:30;6.15;;;3.33;;
47762;SDS011;33526;42.690;23.322;2023-08-01T07:35:56;7.05;;;3.20;;
47762;SDS011;33526;42.690;23.322;2023-08-01T07:38:21;5.05;;;2.63;;
47762;SDS011;33526;42.690;23.322;2023-08-01T07:40:49;7.70;;;2.80;;
47762;SDS011;33526;42.690;23.322;2023-08-01T07:43:17;9.85;;;3.55;;
47762;SDS011;33526;42.690;23.322;2023-08-01T07:45:43;10.80;;;3.38;;
47762;SDS011;33526;42.690;23.322;2023-08-01T07:50:37;10.38;;;3.67;;
47762;SDS011;33526;42.690;23.322;2023-08-01T07:53:04;5.63;;;3.42;;
47762;SDS011;33526;42.690;23.322;2023-08-01T07:55:33;3.80;;;2.80;;
47762;SDS011;33526;42.690;23.322;2023-08-01T07:58:00;4.82;;;2.88;;
47762;SDS011;33526;42.690;23.322;2023-08-01T08:00:26;7.47;;;3.80;;
47762;SDS011;33526;42.690;23.322;2023-08-01T08:02:52;9.27;;;2.60;;
47762;SDS011;33526;42.690;23.322;2023-08-01T08:05:18;5.22;;;3.00;;
47762;SDS011;33526;42.690;23.322;2023-08-01T08:07:44;6.38;;;2.95;;
47762;SDS011;33526;42.690;23.322;2023-08-01T08:10:11;5.70;;;2.97;;
47762;SDS011;33526;42.690;23.322;2023-08-01T08:15:02;8.13;;;3.13;;
47762;SDS011;33526;42.690;23.322;2023-08-01T08:17:28;5.50;;;2.97;;
47762;SDS011;33526;42.690;23.322;2023-08-01T08:19:54;8.57;;;3.30;;
47762;SDS011;33526;42.690;23.322;2023-08-01T08:22:19;6.43;;;3.95;;
47762;SDS011;33526;42.690;23.322;2023-08-01T08:24:46;6.68;;;3.00;;
47762;SDS011;33526;42.690;23.322;2023-08-01T08:27:12;10.15;;;3.05;;
47762;SDS011;33526;42.690;23.322;2023-08-01T08:29:39;9.50;;;3.15;;
47762;SDS011;33526;42.690;23.322;2023-08-01T08:32:05;8.13;;;4.20;;
47762;SDS011;33526;42.690;23.322;2023-08-01T08:34:31;6.03;;;2.95;;
47762;SDS011;33526;42.690;23.322;2023-08-01T08:36:57;7.20;;;3.40;;
47762;SDS011;33526;42.690;23.322;2023-08-01T08:39:23;10.55;;;3.65;;
47762;SDS011;33526;42.690;23.322;2023-08-01T08:41:51;6.73;;;4.30;;
47762;SDS011;33526;42.690;23.322;2023-08-01T08:44:18;7.82;;;3.38;;
47762;SDS011;33526;42.690;23.322;2023-08-01T08:46:47;7.22;;;3.55;;
47762;SDS011;33526;42.690;23.322;2023-08-01T08:49:17;4.25;;;2.90;;
47762;SDS011;33526;42.690;23.322;2023-08-01T08:51:45;4.95;;;3.00;;
47762;SDS011;33526;42.690;23.322;2023-08-01T08:54:11;8.68;;;3.33;;
47762;SDS011;33526;42.690;23.322;2023-08-01T08:56:39;6.43;;;3.35;;
47762;SDS011;33526;42.690;23.322;2023-08-01T08:59:09;5.00;;;3.20;;
47762;SDS011;33526;42.690;23.322;2023-08-01T09:01:36;5.00;;;3.10;;
47762;SDS011;33526;42.690;23.322;2023-08-01T09:04:02;6.20;;;3.40;;
47762;SDS011;33526;42.690;23.322;2023-08-01T09:09:10;8.07;;;3.20;;
47762;SDS011;33526;42.690;23.322;2023-08-01T09:11:41;4.63;;;3.50;;
47762;SDS011;33526;42.690;23.322;2023-08-01T09:14:09;5.43;;;3.28;;
47762;SDS011;33526;42.690;23.322;2023-08-01T09:16:35;4.72;;;3.38;;
47762;SDS011;33526;42.690;23.322;2023-08-01T09:19:01;5.53;;;3.43;;
47762;SDS011;33526;42.690;23.322;2023-08-01T09:21:31;21.50;;;4.07;;
47762;SDS011;33526;42.690;23.322;2023-08-01T09:26:36;4.32;;;3.58;;
47762;SDS011;33526;42.690;23.322;2023-08-01T09:29:03;6.25;;;3.70;;
47762;SDS011;33526;42.690;23.322;2023-08-01T09:31:34;7.50;;;3.28;;
47762;SDS011;33526;42.690;23.322;2023-08-01T09:34:02;7.90;;;3.42;;
47762;SDS011;33526;42.690;23.322;2023-08-01T09:36:30;4.30;;;3.35;;
47762;SDS011;33526;42.690;23.322;2023-08-01T09:39:02;3.50;;;2.87;;
47762;SDS011;33526;42.690;23.322;2023-08-01T09:41:30;8.77;;;3.30;;
47762;SDS011;33526;42.690;23.322;2023-08-01T09:46:26;5.72;;;3.47;;
47762;SDS011;33526;42.690;23.322;2023-08-01T09:48:51;6.82;;;3.65;;
47762;SDS011;33526;42.690;23.322;2023-08-01T09:51:17;6.40;;;3.30;;
47762;SDS011;33526;42.690;23.322;2023-08-01T09:53:48;6.40;;;3.03;;
47762;SDS011;33526;42.690;23.322;2023-08-01T09:56:18;7.22;;;3.25;;
47762;SDS011;33526;42.690;23.322;2023-08-01T09:58:47;4.85;;;3.17;;
47762;SDS011;33526;42.690;23.322;2023-08-01T10:01:23;10.48;;;4.45;;
47762;SDS011;33526;42.690;23.322;2023-08-01T10:03:50;6.85;;;3.35;;
47762;SDS011;33526;42.690;23.322;2023-08-01T10:06:21;5.63;;;3.35;;
47762;SDS011;33526;42.690;23.322;2023-08-01T10:08:50;7.25;;;3.83;;
47762;SDS011;33526;42.690;23.322;2023-08-01T10:11:17;6.07;;;3.15;;
47762;SDS011;33526;42.690;23.322;2023-08-01T10:13:45;5.28;;;3.83;;
47762;SDS011;33526;42.690;23.322;2023-08-01T10:16:11;8.70;;;3.55;;
47762;SDS011;33526;42.690;23.322;2023-08-01T10:18:39;10.32;;;3.95;;
47762;SDS011;33526;42.690;23.322;2023-08-01T10:21:06;4.95;;;3.65;;
47762;SDS011;33526;42.690;23.322;2023-08-01T10:23:35;8.02;;;3.28;;
47762;SDS011;33526;42.690;23.322;2023-08-01T10:26:07;11.05;;;3.70;;
47762;SDS011;33526;42.690;23.322;2023-08-01T10:28:36;5.70;;;3.35;;
47762;SDS011;33526;42.690;23.322;2023-08-01T10:31:53;7.38;;;3.80;;
47762;SDS011;33526;42.690;23.322;2023-08-01T10:35:12;6.45;;;3.05;;
47762;SDS011;33526;42.690;23.322;2023-08-01T10:37:43;4.43;;;3.40;;
47762;SDS011;33526;42.690;23.322;2023-08-01T10:40:11;6.22;;;3.35;;
47762;SDS011;33526;42.690;23.322;2023-08-01T10:42:41;9.77;;;3.63;;
47762;SDS011;33526;42.690;23.322;2023-08-01T10:45:19;7.40;;;3.80;;
47762;SDS011;33526;42.690;23.322;2023-08-01T10:47:48;5.07;;;3.50;;
47762;SDS011;33526;42.690;23.322;2023-08-01T10:50:16;6.80;;;3.50;;
47762;SDS011;33526;42.690;23.322;2023-08-01T10:52:44;5.40;;;3.30;;
47762;SDS011;33526;42.690;23.322;2023-08-01T10:55:12;7.15;;;4.15;;
47762;SDS011;33526;42.690;23.322;2023-08-01T10:57:50;4.25;;;3.47;;
47762;SDS011;33526;42.690;23.322;2023-08-01T11:00:18;4.55;;;3.28;;
47762;SDS011;33526;42.690;23.322;2023-08-01T11:05:17;3.22;;;2.92;;
47762;SDS011;33526;42.690;23.322;2023-08-01T11:07:54;7.60;;;3.10;;
47762;SDS011;33526;42.690;23.322;2023-08-01T11:10:21;4.10;;;3.00;;
47762;SDS011;33526;42.690;23.322;2023-08-01T11:12:53;6.75;;;3.10;;
47762;SDS011;33526;42.690;23.322;2023-08-01T11:15:19;9.85;;;3.55;;
47762;SDS011;33526;42.690;23.322;2023-08-01T11:17:54;5.97;;;3.50;;
47762;SDS011;33526;42.690;23.322;2023-08-01T11:20:23;5.65;;;3.13;;
47762;SDS011;33526;42.690;23.322;2023-08-01T11:22:59;7.25;;;3.17;;
47762;SDS011;33526;42.690;23.322;2023-08-01T11:25:37;5.45;;;3.33;;
47762;SDS011;33526;42.690;23.322;2023-08-01T11:28:16;5.35;;;3.90;;
47762;SDS011;33526;42.690;23.322;2023-08-01T11:30:44;5.60;;;3.58;;
47762;SDS011;33526;42.690;23.322;2023-08-01T11:33:22;3.38;;;2.70;;
47762;SDS011;33526;42.690;23.322;2023-08-01T11:35:56;9.18;;;3.08;;
47762;SDS011;33526;42.690;23.322;2023-08-01T11:40:54;10.48;;;3.72;;
47762;SDS011;33526;42.690;23.322;2023-08-01T11:43:22;8.05;;;5.10;;
47762;SDS011;33526;42.690;23.322;2023-08-01T11:45:49;6.10;;;3.20;;
47762;SDS011;33526;42.690;23.322;2023-08-01T11:48:19;6.80;;;3.50;;
47762;SDS011;33526;42.690;23.322;2023-08-01T11:50:46;4.18;;;2.95;;
47762;SDS011;33526;42.690;23.322;2023-08-01T11:53:21;3.83;;;3.33;;
47762;SDS011;33526;42.690;23.322;2023-08-01T11:55:47;6.65;;;3.08;;
47762;SDS011;33526;42.690;23.322;2023-08-01T11:58:14;3.95;;;2.80;;
47762;SDS011;33526;42.690;23.322;2023-08-01T12:00:40;5.73;;;3.50;;
47762;SDS011;33526;42.690;23.322;2023-08-01T12:03:08;4.50;;;3.15;;
47762;SDS011;33526;42.690;23.322;2023-08-01T12:05:40;8.23;;;3.53;;
47762;SDS011;33526;42.690;23.322;2023-08-01T12:08:08;5.90;;;2.80;;
47762;SDS011;33526;42.690;23.322;2023-08-01T12:10:38;12.57;;;2.97;;
47762;SDS011;33526;42.690;23.322;2023-08-01T12:13:05;5.47;;;2.65;;
47762;SDS011;33526;42.690;23.322;2023-08-01T12:15:31;4.15;;;3.00;;
47762;SDS011;33526;42.690;23.322;2023-08-01T12:17:57;5.37;;;2.73;;
47762;SDS011;33526;42.690;23.322;2023-08-01T12:20:27;2.95;;;2.38;;
47762;SDS011;33526;42.690;23.322;2023-08-01T12:22:54;4.60;;;2.47;;
47762;SDS011;33526;42.690;23.322;2023-08-01T12:25:27;3.63;;;3.15;;
47762;SDS011;33526;42.690;23.322;2023-08-01T12:27:52;7.20;;;3.10;;
47762;SDS011;33526;42.690;23.322;2023-08-01T12:30:18;4.53;;;2.93;;
47762;SDS011;33526;42.690;23.322;2023-08-01T12:32:46;10.85;;;2.85;;
47762;SDS011;33526;42.690;23.322;2023-08-01T12:35:12;3.67;;;3.00;;
47762;SDS011;33526;42.690;23.322;2023-08-01T12:37:37;4.70;;;3.10;;
47762;SDS011;33526;42.690;23.322;2023-08-01T12:40:03;4.67;;;3.10;;
47762;SDS011;33526;42.690;23.322;2023-08-01T12:42:29;7.57;;;3.88;;
47762;SDS011;33526;42.690;23.322;2023-08-01T12:44:54;8.47;;;3.23;;
47762;SDS011;33526;42.690;23.322;2023-08-01T12:47:21;5.32;;;3.10;;
47762;SDS011;33526;42.690;23.322;2023-08-01T12:49:48;5.82;;;3.05;;
47762;SDS011;33526;42.690;23.322;2023-08-01T12:52:21;5.95;;;3.88;;
47762;SDS011;33526;42.690;23.322;2023-08-01T12:54:52;7.30;;;2.60;;
47762;SDS011;33526;42.690;23.322;2023-08-01T12:57:18;8.83;;;3.07;;
47762;SDS011;33526;42.690;23.322;2023-08-01T12:59:50;9.43;;;2.70;;
47762;SDS011;33526;42.690;23.322;2023-08-01T13:02:15;8.00;;;3.03;;
47762;SDS011;33526;42.690;23.322;2023-08-01T13:04:41;3.03;;;2.67;;
47762;SDS011;33526;42.690;23.322;2023-08-01T13:07:07;7.77;;;3.40;;
47762;SDS011;33526;42.690;23.322;2023-08-01T13:09:32;6.33;;;2.73;;
47762;SDS011;33526;42.690;23.322;2023-08-01T13:11:58;5.23;;;3.70;;
47762;SDS011;33526;42.690;23.322;2023-08-01T13:16:51;13.20;;;3.13;;
47762;SDS011;33526;42.690;23.322;2023-08-01T13:19:18;4.00;;;3.30;;
47762;SDS011;33526;42.690;23.322;2023-08-01T13:21:44;8.00;;;4.23;;
47762;SDS011;33526;42.690;23.322;2023-08-01T13:24:09;5.80;;;1.80;;
47762;SDS011;33526;42.690;23.322;2023-08-01T13:26:40;5.40;;;2.00;;
47762;SDS011;33526;42.690;23.322;2023-08-01T13:29:15;2.13;;;1.80;;
47762;SDS011;33526;42.690;23.322;2023-08-01T13:31:40;4.95;;;3.28;;
47762;SDS011;33526;42.690;23.322;2023-08-01T13:34:09;2.70;;;2.00;;
47762;SDS011;33526;42.690;23.322;2023-08-01T13:36:36;3.92;;;1.90;;
47762;SDS011;33526;42.690;23.322;2023-08-01T13:39:02;3.70;;;1.70;;
47762;SDS011;33526;42.690;23.322;2023-08-01T13:41:27;2.40;;;1.87;;
47762;SDS011;33526;42.690;23.322;2023-08-01T13:43:52;2.67;;;1.70;;
47762;SDS011;33526;42.690;23.322;2023-08-01T13:46:18;3.00;;;2.03;;
47762;SDS011;33526;42.690;23.322;2023-08-01T13:48:45;2.30;;;1.90;;
47762;SDS011;33526;42.690;23.322;2023-08-01T13:51:11;3.58;;;2.15;;
47762;SDS011;33526;42.690;23.322;2023-08-01T13:53:37;4.43;;;1.98;;
47762;SDS011;33526;42.690;23.322;2023-08-01T13:56:10;3.13;;;1.95;;
47762;SDS011;33526;42.690;23.322;2023-08-01T13:58:40;2.90;;;1.97;;
47762;SDS011;33526;42.690;23.322;2023-08-01T14:01:09;3.25;;;2.08;;
47762;SDS011;33526;42.690;23.322;2023-08-01T14:03:36;4.55;;;2.10;;
47762;SDS011;33526;42.690;23.322;2023-08-01T14:06:05;3.50;;;2.15;;
47762;SDS011;33526;42.690;23.322;2023-08-01T14:08:34;7.93;;;2.00;;
47762;SDS011;33526;42.690;23.322;2023-08-01T14:11:02;4.70;;;2.00;;
47762;SDS011;33526;42.690;23.322;2023-08-01T14:13:29;4.47;;;2.40;;
47762;SDS011;33526;42.690;23.322;2023-08-01T14:16:16;7.57;;;2.28;;
47762;SDS011;33526;42.690;23.322;2023-08-01T14:18:43;4.60;;;2.00;;
47762;SDS011;33526;42.690;23.322;2023-08-01T14:21:10;4.53;;;1.88;;
47762;SDS011;33526;42.690;23.322;2023-08-01T14:23:35;5.13;;;2.40;;
47762;SDS011;33526;42.690;23.322;2023-08-01T14:26:03;2.33;;;2.00;;
47762;SDS011;33526;42.690;23.322;2023-08-01T14:28:29;2.37;;;1.80;;
47762;SDS011;33526;42.690;23.322;2023-08-01T14:30:55;7.32;;;1.80;;
47762;SDS011;33526;42.690;23.322;2023-08-01T14:33:24;2.40;;;2.10;;
47762;SDS011;33526;42.690;23.322;2023-08-01T14:35:49;5.30;;;2.05;;
47762;SDS011;33526;42.690;23.322;2023-08-01T14:38:15;3.23;;;2.10;;
47762;SDS011;33526;42.690;23.322;2023-08-01T14:40:42;2.28;;;2.08;;
47762;SDS011;33526;42.690;23.322;2023-08-01T14:43:07;2.70;;;2.37;;
47762;SDS011;33526;42.690;23.322;2023-08-01T14:45:38;3.10;;;2.47;;
47762;SDS011;33526;42.690;23.322;2023-08-01T14:48:06;4.13;;;2.58;;
47762;SDS011;33526;42.690;23.322;2023-08-01T14:50:32;3.28;;;2.38;;
47762;SDS011;33526;42.690;23.322;2023-08-01T14:52:59;3.65;;;2.35;;
47762;SDS011;33526;42.690;23.322;2023-08-01T14:55:24;2.90;;;2.20;;
47762;SDS011;33526;42.690;23.322;2023-08-01T14:57:51;2.75;;;2.22;;
47762;SDS011;33526;42.690;23.322;2023-08-01T15:00:16;3.10;;;2.30;;